sensor_id;sensor_type;location;lat;lon;timestamp;P1;durP1;ratioP1;P2;durP2;ratioP2
9698;SDS011;10089;47.876;8.346;2022-12-31T00:02:03;1.05;;;0.93;;
9698;SDS011;10089;47.876;8.346;2022-12-31T00:04:29;3.05;;;0.93;;
9698;SDS011;10089;47.876;8.346;2022-12-31T00:06:55;1.45;;;0.82;;
9698;SDS011;10089;47.876;8.346;2022-12-31T00:09:20;1.42;;;1.08;;
9698;SDS011;10089;47.876;8.346;2022-12-31T00:11:46;1.65;;;0.90;;
9698;SDS011;10089;47.876;8.346;2022-12-31T00:14:12;1.45;;;0.80;;
9698;SDS011;10089;47.876;8.346;2022-12-31T00:16:39;1.52;;;0.60;;
9698;SDS011;10089;47.876;8.346;2022-12-31T00:19:06;1.00;;;0.98;;
9698;SDS011;10089;47.876;8.346;2022-12-31T00:21:33;1.08;;;1.02;;
9698;SDS011;10089;47.876;8.346;2022-12-31T00:24:00;3.05;;;0.98;;
9698;SDS011;10089;47.876;8.346;2022-12-31T00:26:28;4.22;;;3.10;;
9698;SDS011;10089;47.876;8.346;2022-12-31T00:28:56;1.10;;;1.00;;
9698;SDS011;10089;47.876;8.346;2022-12-31T00:31:25;1.52;;;1.15;;
9698;SDS011;10089;47.876;8.346;2022-12-31T00:33:53;1.30;;;1.20;;
9698;SDS011;10089;47.876;8.346;2022-12-31T00:36:20;1.75;;;0.90;;
9698;SDS011;10089;47.876;8.346;2022-12-31T00:38:47;1.55;;;0.90;;
9698;SDS011;10089;47.876;8.346;2022-12-31T00:41:15;1.10;;;1.00;;
9698;SDS011;10089;47.876;8.346;2022-12-31T00:43:42;1.48;;;1.10;;
9698;SDS011;10089;47.876;8.346;2022-12-31T00:46:08;1.55;;;0.90;;
9698;SDS011;10089;47.876;8.346;2022-12-31T00:48:35;1.40;;;0.80;;
9698;SDS011;10089;47.876;8.346;2022-12-31T00:51:02;3.45;;;0.90;;
9698;SDS011;10089;47.876;8.346;2022-12-31T00:53:28;1.75;;;1.10;;
9698;SDS011;10089;47.876;8.346;2022-12-31T00:55:58;0.77;;;0.77;;
9698;SDS011;10089;47.876;8.346;2022-12-31T00:58:25;2.70;;;0.90;;
9698;SDS011;10089;47.876;8.346;2022-12-31T01:00:51;1.30;;;0.98;;
9698;SDS011;10089;47.876;8.346;2022-12-31T01:03:17;2.78;;;1.30;;
9698;SDS011;10089;47.876;8.346;2022-12-31T01:05:42;2.65;;;1.90;;
9698;SDS011;10089;47.876;8.346;2022-12-31T01:08:08;3.97;;;2.10;;
9698;SDS011;10089;47.876;8.346;2022-12-31T01:10:34;3.00;;;2.25;;
9698;SDS011;10089;47.876;8.346;2022-12-31T01:13:18;2.90;;;2.25;;
9698;SDS011;10089;47.876;8.346;2022-12-31T01:15:44;4.35;;;2.53;;
9698;SDS011;10089;47.876;8.346;2022-12-31T01:18:10;3.20;;;2.90;;
9698;SDS011;10089;47.876;8.346;2022-12-31T01:20:37;4.05;;;1.90;;
9698;SDS011;10089;47.876;8.346;2022-12-31T01:23:04;2.92;;;1.20;;
9698;SDS011;10089;47.876;8.346;2022-12-31T01:25:33;1.95;;;1.20;;
9698;SDS011;10089;47.876;8.346;2022-12-31T01:28:04;1.08;;;0.98;;
9698;SDS011;10089;47.876;8.346;2022-12-31T01:30:30;1.98;;;1.20;;
9698;SDS011;10089;47.876;8.346;2022-12-31T01:32:56;1.08;;;0.90;;
9698;SDS011;10089;47.876;8.346;2022-12-31T01:35:23;1.15;;;1.05;;
9698;SDS011;10089;47.876;8.346;2022-12-31T01:37:49;2.13;;;1.20;;
9698;SDS011;10089;47.876;8.346;2022-12-31T01:40:15;2.38;;;1.60;;
9698;SDS011;10089;47.876;8.346;2022-12-31T01:42:41;2.10;;;1.50;;
9698;SDS011;10089;47.876;8.346;2022-12-31T01:45:10;1.77;;;1.60;;
9698;SDS011;10089;47.876;8.346;2022-12-31T01:47:42;4.03;;;1.80;;
9698;SDS011;10089;47.876;8.346;2022-12-31T01:50:15;3.08;;;1.85;;
9698;SDS011;10089;47.876;8.346;2022-12-31T01:52:49;2.22;;;1.75;;
9698;SDS011;10089;47.876;8.346;2022-12-31T01:57:54;1.75;;;1.60;;
9698;SDS011;10089;47.876;8.346;2022-12-31T02:00:23;2.28;;;1.70;;
9698;SDS011;10089;47.876;8.346;2022-12-31T02:02:49;2.58;;;1.70;;
9698;SDS011;10089;47.876;8.346;2022-12-31T02:05:21;1.70;;;1.60;;
9698;SDS011;10089;47.876;8.346;2022-12-31T02:07:53;2.05;;;1.80;;
9698;SDS011;10089;47.876;8.346;2022-12-31T02:10:20;2.17;;;1.98;;
9698;SDS011;10089;47.876;8.346;2022-12-31T02:12:46;2.85;;;2.20;;
9698;SDS011;10089;47.876;8.346;2022-12-31T02:15:12;4.63;;;2.78;;
9698;SDS011;10089;47.876;8.346;2022-12-31T02:17:54;3.22;;;2.92;;
9698;SDS011;10089;47.876;8.346;2022-12-31T02:26:01;4.20;;;3.78;;
9698;SDS011;10089;47.876;8.346;2022-12-31T02:31:17;3.92;;;3.40;;
9698;SDS011;10089;47.876;8.346;2022-12-31T02:33:55;7.05;;;4.10;;
9698;SDS011;10089;47.876;8.346;2022-12-31T02:36:30;4.75;;;3.80;;
9698;SDS011;10089;47.876;8.346;2022-12-31T02:39:00;3.67;;;3.38;;
9698;SDS011;10089;47.876;8.346;2022-12-31T02:41:28;4.78;;;3.45;;
9698;SDS011;10089;47.876;8.346;2022-12-31T02:55:04;1.55;;;1.45;;
9698;SDS011;10089;47.876;8.346;2022-12-31T03:00:45;1.40;;;1.30;;
9698;SDS011;10089;47.876;8.346;2022-12-31T03:03:33;1.20;;;1.10;;
9698;SDS011;10089;47.876;8.346;2022-12-31T03:06:01;1.30;;;1.20;;
9698;SDS011;10089;47.876;8.346;2022-12-31T03:08:28;1.00;;;0.90;;
9698;SDS011;10089;47.876;8.346;2022-12-31T03:10:54;1.00;;;1.00;;
9698;SDS011;10089;47.876;8.346;2022-12-31T03:13:21;3.92;;;1.08;;
9698;SDS011;10089;47.876;8.346;2022-12-31T03:15:48;0.90;;;0.90;;
9698;SDS011;10089;47.876;8.346;2022-12-31T03:18:15;0.77;;;0.77;;
9698;SDS011;10089;47.876;8.346;2022-12-31T03:20:44;1.10;;;0.80;;
9698;SDS011;10089;47.876;8.346;2022-12-31T03:23:33;0.73;;;0.73;;
9698;SDS011;10089;47.876;8.346;2022-12-31T03:26:03;0.85;;;0.85;;
9698;SDS011;10089;47.876;8.346;2022-12-31T03:28:40;3.08;;;0.93;;
9698;SDS011;10089;47.876;8.346;2022-12-31T03:31:06;0.70;;;0.70;;
9698;SDS011;10089;47.876;8.346;2022-12-31T03:33:36;1.27;;;0.90;;
9698;SDS011;10089;47.876;8.346;2022-12-31T03:36:05;1.58;;;0.90;;
9698;SDS011;10089;47.876;8.346;2022-12-31T03:38:32;3.58;;;1.90;;
9698;SDS011;10089;47.876;8.346;2022-12-31T03:40:58;1.58;;;1.20;;
9698;SDS011;10089;47.876;8.346;2022-12-31T03:43:24;1.58;;;1.10;;
9698;SDS011;10089;47.876;8.346;2022-12-31T03:45:50;1.73;;;1.50;;
9698;SDS011;10089;47.876;8.346;2022-12-31T03:48:17;1.40;;;1.30;;
9698;SDS011;10089;47.876;8.346;2022-12-31T03:50:43;1.80;;;1.35;;
9698;SDS011;10089;47.876;8.346;2022-12-31T03:53:09;2.35;;;1.35;;
9698;SDS011;10089;47.876;8.346;2022-12-31T03:55:35;2.42;;;1.60;;
9698;SDS011;10089;47.876;8.346;2022-12-31T03:58:01;2.95;;;1.40;;
9698;SDS011;10089;47.876;8.346;2022-12-31T04:00:27;1.30;;;1.20;;
9698;SDS011;10089;47.876;8.346;2022-12-31T04:02:53;2.63;;;1.48;;
9698;SDS011;10089;47.876;8.346;2022-12-31T04:05:19;1.77;;;1.52;;
9698;SDS011;10089;47.876;8.346;2022-12-31T04:07:45;2.70;;;1.40;;
9698;SDS011;10089;47.876;8.346;2022-12-31T04:10:12;1.85;;;1.50;;
9698;SDS011;10089;47.876;8.346;2022-12-31T04:12:40;2.00;;;1.60;;
9698;SDS011;10089;47.876;8.346;2022-12-31T04:15:06;2.83;;;1.60;;
9698;SDS011;10089;47.876;8.346;2022-12-31T04:17:33;2.28;;;1.90;;
9698;SDS011;10089;47.876;8.346;2022-12-31T04:19:59;1.85;;;1.67;;
9698;SDS011;10089;47.876;8.346;2022-12-31T04:22:25;3.05;;;1.60;;
9698;SDS011;10089;47.876;8.346;2022-12-31T04:24:50;1.80;;;1.67;;
9698;SDS011;10089;47.876;8.346;2022-12-31T04:27:16;2.05;;;1.85;;
9698;SDS011;10089;47.876;8.346;2022-12-31T04:29:58;1.77;;;1.67;;
9698;SDS011;10089;47.876;8.346;2022-12-31T04:32:23;2.35;;;1.92;;
9698;SDS011;10089;47.876;8.346;2022-12-31T04:34:49;1.75;;;1.60;;
9698;SDS011;10089;47.876;8.346;2022-12-31T04:37:15;1.88;;;1.60;;
9698;SDS011;10089;47.876;8.346;2022-12-31T04:39:40;1.70;;;1.60;;
9698;SDS011;10089;47.876;8.346;2022-12-31T04:42:06;2.10;;;1.80;;
9698;SDS011;10089;47.876;8.346;2022-12-31T04:44:32;1.83;;;1.70;;
9698;SDS011;10089;47.876;8.346;2022-12-31T04:46:59;3.00;;;1.90;;
9698;SDS011;10089;47.876;8.346;2022-12-31T04:49:24;1.80;;;1.70;;
9698;SDS011;10089;47.876;8.346;2022-12-31T04:51:50;3.47;;;2.00;;
9698;SDS011;10089;47.876;8.346;2022-12-31T04:54:16;2.45;;;1.92;;
9698;SDS011;10089;47.876;8.346;2022-12-31T04:56:41;3.72;;;2.10;;
9698;SDS011;10089;47.876;8.346;2022-12-31T04:59:07;2.67;;;2.47;;
9698;SDS011;10089;47.876;8.346;2022-12-31T05:01:34;3.90;;;2.05;;
9698;SDS011;10089;47.876;8.346;2022-12-31T05:04:01;2.85;;;2.50;;
9698;SDS011;10089;47.876;8.346;2022-12-31T05:06:27;2.95;;;2.60;;
9698;SDS011;10089;47.876;8.346;2022-12-31T05:08:52;3.22;;;2.60;;
9698;SDS011;10089;47.876;8.346;2022-12-31T05:11:18;3.55;;;2.80;;
9698;SDS011;10089;47.876;8.346;2022-12-31T05:13:44;4.68;;;3.60;;
9698;SDS011;10089;47.876;8.346;2022-12-31T05:16:10;5.20;;;3.55;;
9698;SDS011;10089;47.876;8.346;2022-12-31T05:18:36;3.55;;;3.25;;
9698;SDS011;10089;47.876;8.346;2022-12-31T05:21:01;4.00;;;2.80;;
9698;SDS011;10089;47.876;8.346;2022-12-31T05:23:27;5.78;;;2.70;;
9698;SDS011;10089;47.876;8.346;2022-12-31T05:25:53;2.60;;;2.40;;
9698;SDS011;10089;47.876;8.346;2022-12-31T05:28:19;4.13;;;2.20;;
9698;SDS011;10089;47.876;8.346;2022-12-31T05:30:48;2.55;;;2.30;;
9698;SDS011;10089;47.876;8.346;2022-12-31T05:33:15;2.67;;;2.25;;
9698;SDS011;10089;47.876;8.346;2022-12-31T05:35:41;2.72;;;2.30;;
9698;SDS011;10089;47.876;8.346;2022-12-31T05:38:07;3.42;;;2.40;;
9698;SDS011;10089;47.876;8.346;2022-12-31T05:40:32;2.55;;;2.22;;
9698;SDS011;10089;47.876;8.346;2022-12-31T05:42:58;2.60;;;2.40;;
9698;SDS011;10089;47.876;8.346;2022-12-31T05:45:24;2.55;;;2.35;;
9698;SDS011;10089;47.876;8.346;2022-12-31T05:47:50;2.83;;;2.58;;
9698;SDS011;10089;47.876;8.346;2022-12-31T05:50:16;5.65;;;2.95;;
9698;SDS011;10089;47.876;8.346;2022-12-31T05:52:42;3.53;;;2.60;;
9698;SDS011;10089;47.876;8.346;2022-12-31T05:55:10;3.40;;;2.50;;
9698;SDS011;10089;47.876;8.346;2022-12-31T05:57:36;21.95;;;13.68;;
9698;SDS011;10089;47.876;8.346;2022-12-31T06:00:04;3.28;;;2.00;;
9698;SDS011;10089;47.876;8.346;2022-12-31T06:02:31;2.67;;;2.13;;
9698;SDS011;10089;47.876;8.346;2022-12-31T06:04:57;3.42;;;2.40;;
9698;SDS011;10089;47.876;8.346;2022-12-31T06:07:22;2.63;;;2.35;;
9698;SDS011;10089;47.876;8.346;2022-12-31T06:09:48;4.85;;;4.05;;
9698;SDS011;10089;47.876;8.346;2022-12-31T06:12:14;7.60;;;4.07;;
9698;SDS011;10089;47.876;8.346;2022-12-31T06:14:39;4.28;;;2.35;;
9698;SDS011;10089;47.876;8.346;2022-12-31T06:17:05;3.00;;;1.92;;
9698;SDS011;10089;47.876;8.346;2022-12-31T06:19:31;2.53;;;2.25;;
9698;SDS011;10089;47.876;8.346;2022-12-31T06:21:57;2.72;;;1.92;;
9698;SDS011;10089;47.876;8.346;2022-12-31T06:24:23;3.85;;;2.30;;
9698;SDS011;10089;47.876;8.346;2022-12-31T06:26:48;2.55;;;2.33;;
9698;SDS011;10089;47.876;8.346;2022-12-31T06:29:14;2.35;;;2.15;;
9698;SDS011;10089;47.876;8.346;2022-12-31T06:31:40;2.88;;;1.92;;
9698;SDS011;10089;47.876;8.346;2022-12-31T06:34:06;2.20;;;2.00;;
9698;SDS011;10089;47.876;8.346;2022-12-31T06:36:31;2.20;;;1.73;;
9698;SDS011;10089;47.876;8.346;2022-12-31T06:38:57;3.70;;;1.92;;
9698;SDS011;10089;47.876;8.346;2022-12-31T06:41:23;2.47;;;2.10;;
9698;SDS011;10089;47.876;8.346;2022-12-31T06:43:49;1.60;;;1.50;;
9698;SDS011;10089;47.876;8.346;2022-12-31T06:46:15;2.50;;;1.50;;
9698;SDS011;10089;47.876;8.346;2022-12-31T06:48:41;1.83;;;1.73;;
9698;SDS011;10089;47.876;8.346;2022-12-31T06:51:10;2.08;;;1.50;;
9698;SDS011;10089;47.876;8.346;2022-12-31T06:53:38;1.85;;;1.63;;
9698;SDS011;10089;47.876;8.346;2022-12-31T06:56:08;1.70;;;1.60;;
9698;SDS011;10089;47.876;8.346;2022-12-31T06:58:38;2.63;;;2.38;;
9698;SDS011;10089;47.876;8.346;2022-12-31T07:01:48;4.38;;;1.38;;
9698;SDS011;10089;47.876;8.346;2022-12-31T07:04:04;1.98;;;1.40;;
9698;SDS011;10089;47.876;8.346;2022-12-31T07:06:51;1.70;;;1.60;;
9698;SDS011;10089;47.876;8.346;2022-12-31T07:09:48;5.03;;;2.30;;
9698;SDS011;10089;47.876;8.346;2022-12-31T07:15:06;3.35;;;1.92;;
9698;SDS011;10089;47.876;8.346;2022-12-31T07:20:14;3.03;;;1.65;;
9698;SDS011;10089;47.876;8.346;2022-12-31T07:22:41;2.95;;;1.90;;
9698;SDS011;10089;47.876;8.346;2022-12-31T07:25:14;2.28;;;1.40;;
9698;SDS011;10089;47.876;8.346;2022-12-31T07:43:50;1.48;;;1.38;;
9698;SDS011;10089;47.876;8.346;2022-12-31T07:49:23;3.03;;;1.20;;
9698;SDS011;10089;47.876;8.346;2022-12-31T07:51:50;1.40;;;1.10;;
9698;SDS011;10089;47.876;8.346;2022-12-31T07:54:16;0.90;;;0.90;;
9698;SDS011;10089;47.876;8.346;2022-12-31T07:56:42;1.50;;;1.38;;
9698;SDS011;10089;47.876;8.346;2022-12-31T08:04:59;1.45;;;1.35;;
9698;SDS011;10089;47.876;8.346;2022-12-31T08:10:47;3.45;;;1.70;;
9698;SDS011;10089;47.876;8.346;2022-12-31T08:13:16;3.17;;;1.70;;
9698;SDS011;10089;47.876;8.346;2022-12-31T08:15:42;3.08;;;1.75;;
9698;SDS011;10089;47.876;8.346;2022-12-31T08:18:08;2.85;;;2.20;;
9698;SDS011;10089;47.876;8.346;2022-12-31T08:20:37;2.17;;;1.90;;
9698;SDS011;10089;47.876;8.346;2022-12-31T08:26:01;1.92;;;1.70;;
9698;SDS011;10089;47.876;8.346;2022-12-31T08:34:12;1.45;;;1.35;;
9698;SDS011;10089;47.876;8.346;2022-12-31T08:41:54;3.17;;;1.60;;
9698;SDS011;10089;47.876;8.346;2022-12-31T08:49:32;3.65;;;2.42;;
9698;SDS011;10089;47.876;8.346;2022-12-31T08:52:00;5.22;;;3.92;;
9698;SDS011;10089;47.876;8.346;2022-12-31T08:54:58;3.33;;;2.92;;
9698;SDS011;10089;47.876;8.346;2022-12-31T08:57:27;7.30;;;5.60;;
9698;SDS011;10089;47.876;8.346;2022-12-31T09:00:06;2.88;;;2.10;;
9698;SDS011;10089;47.876;8.346;2022-12-31T09:05:55;4.72;;;2.10;;
9698;SDS011;10089;47.876;8.346;2022-12-31T09:15:05;2.00;;;1.42;;
9698;SDS011;10089;47.876;8.346;2022-12-31T09:17:46;3.90;;;2.42;;
9698;SDS011;10089;47.876;8.346;2022-12-31T09:23:16;3.70;;;2.45;;
9698;SDS011;10089;47.876;8.346;2022-12-31T09:26:32;1.20;;;1.10;;
9698;SDS011;10089;47.876;8.346;2022-12-31T09:32:18;1.23;;;1.00;;
9698;SDS011;10089;47.876;8.346;2022-12-31T09:38:20;1.10;;;1.00;;
9698;SDS011;10089;47.876;8.346;2022-12-31T09:56:41;2.40;;;1.00;;
9698;SDS011;10089;47.876;8.346;2022-12-31T10:03:11;2.58;;;1.30;;
9698;SDS011;10089;47.876;8.346;2022-12-31T10:31:39;1.55;;;1.42;;
9698;SDS011;10089;47.876;8.346;2022-12-31T10:58:38;1.77;;;1.60;;
9698;SDS011;10089;47.876;8.346;2022-12-31T11:01:25;2.95;;;1.70;;
9698;SDS011;10089;47.876;8.346;2022-12-31T11:12:37;1.48;;;1.38;;
9698;SDS011;10089;47.876;8.346;2022-12-31T11:23:18;3.15;;;2.17;;
9698;SDS011;10089;47.876;8.346;2022-12-31T11:28:27;4.63;;;3.53;;
9698;SDS011;10089;47.876;8.346;2022-12-31T11:31:14;2.72;;;2.05;;
9698;SDS011;10089;47.876;8.346;2022-12-31T11:40:17;3.60;;;3.30;;
9698;SDS011;10089;47.876;8.346;2022-12-31T11:57:13;7.25;;;6.15;;
9698;SDS011;10089;47.876;8.346;2022-12-31T11:59:40;4.47;;;3.30;;
9698;SDS011;10089;47.876;8.346;2022-12-31T12:02:20;21.33;;;16.83;;
9698;SDS011;10089;47.876;8.346;2022-12-31T12:04:59;16.65;;;12.10;;
9698;SDS011;10089;47.876;8.346;2022-12-31T12:07:27;8.57;;;6.20;;
9698;SDS011;10089;47.876;8.346;2022-12-31T12:09:55;33.13;;;29.60;;
9698;SDS011;10089;47.876;8.346;2022-12-31T12:12:23;6.13;;;3.40;;
9698;SDS011;10089;47.876;8.346;2022-12-31T12:14:51;5.13;;;3.50;;
9698;SDS011;10089;47.876;8.346;2022-12-31T12:17:21;7.22;;;4.32;;
9698;SDS011;10089;47.876;8.346;2022-12-31T12:19:59;3.40;;;3.10;;
9698;SDS011;10089;47.876;8.346;2022-12-31T12:22:37;2.67;;;2.40;;
9698;SDS011;10089;47.876;8.346;2022-12-31T12:25:17;3.80;;;2.75;;
9698;SDS011;10089;47.876;8.346;2022-12-31T12:27:44;2.65;;;2.10;;
9698;SDS011;10089;47.876;8.346;2022-12-31T12:30:17;3.47;;;2.55;;
9698;SDS011;10089;47.876;8.346;2022-12-31T12:32:55;3.13;;;2.38;;
9698;SDS011;10089;47.876;8.346;2022-12-31T12:35:28;3.05;;;2.33;;
9698;SDS011;10089;47.876;8.346;2022-12-31T12:37:59;4.13;;;2.20;;
9698;SDS011;10089;47.876;8.346;2022-12-31T12:40:27;3.20;;;2.38;;
9698;SDS011;10089;47.876;8.346;2022-12-31T12:42:54;2.65;;;2.10;;
9698;SDS011;10089;47.876;8.346;2022-12-31T12:47:54;4.75;;;3.42;;
9698;SDS011;10089;47.876;8.346;2022-12-31T12:50:24;5.93;;;4.90;;
9698;SDS011;10089;47.876;8.346;2022-12-31T13:10:46;4.38;;;3.28;;
9698;SDS011;10089;47.876;8.346;2022-12-31T13:15:37;3.95;;;2.58;;
9698;SDS011;10089;47.876;8.346;2022-12-31T13:18:12;3.20;;;2.50;;
9698;SDS011;10089;47.876;8.346;2022-12-31T13:24:14;4.72;;;2.88;;
9698;SDS011;10089;47.876;8.346;2022-12-31T13:29:37;3.78;;;2.80;;
9698;SDS011;10089;47.876;8.346;2022-12-31T13:32:06;5.13;;;2.85;;
9698;SDS011;10089;47.876;8.346;2022-12-31T13:34:39;4.72;;;3.95;;
9698;SDS011;10089;47.876;8.346;2022-12-31T13:37:21;2.90;;;2.50;;
9698;SDS011;10089;47.876;8.346;2022-12-31T13:39:55;3.28;;;2.85;;
9698;SDS011;10089;47.876;8.346;2022-12-31T13:42:31;3.72;;;2.92;;
9698;SDS011;10089;47.876;8.346;2022-12-31T13:45:10;6.22;;;3.30;;
9698;SDS011;10089;47.876;8.346;2022-12-31T13:47:44;5.00;;;4.55;;
9698;SDS011;10089;47.876;8.346;2022-12-31T13:50:16;4.85;;;4.30;;
9698;SDS011;10089;47.876;8.346;2022-12-31T13:52:53;7.28;;;4.47;;
9698;SDS011;10089;47.876;8.346;2022-12-31T13:55:31;6.20;;;4.60;;
9698;SDS011;10089;47.876;8.346;2022-12-31T14:00:42;9.93;;;8.43;;
9698;SDS011;10089;47.876;8.346;2022-12-31T14:06:00;7.30;;;6.15;;
9698;SDS011;10089;47.876;8.346;2022-12-31T14:08:33;6.20;;;5.53;;
9698;SDS011;10089;47.876;8.346;2022-12-31T14:18:56;7.18;;;4.25;;
9698;SDS011;10089;47.876;8.346;2022-12-31T14:21:38;10.20;;;7.55;;
9698;SDS011;10089;47.876;8.346;2022-12-31T14:24:43;5.45;;;4.72;;
9698;SDS011;10089;47.876;8.346;2022-12-31T14:27:27;4.93;;;4.22;;
9698;SDS011;10089;47.876;8.346;2022-12-31T14:30:15;14.13;;;10.07;;
9698;SDS011;10089;47.876;8.346;2022-12-31T14:43:34;5.85;;;3.08;;
9698;SDS011;10089;47.876;8.346;2022-12-31T14:51:19;3.20;;;2.45;;
9698;SDS011;10089;47.876;8.346;2022-12-31T14:53:52;4.53;;;2.40;;
9698;SDS011;10089;47.876;8.346;2022-12-31T14:56:39;3.70;;;2.83;;
9698;SDS011;10089;47.876;8.346;2022-12-31T14:59:24;6.13;;;3.85;;
9698;SDS011;10089;47.876;8.346;2022-12-31T15:01:52;4.07;;;3.60;;
9698;SDS011;10089;47.876;8.346;2022-12-31T15:04:32;4.50;;;3.38;;
9698;SDS011;10089;47.876;8.346;2022-12-31T15:07:13;12.95;;;8.63;;
9698;SDS011;10089;47.876;8.346;2022-12-31T15:09:50;7.20;;;5.22;;
9698;SDS011;10089;47.876;8.346;2022-12-31T15:12:37;2.90;;;2.60;;
9698;SDS011;10089;47.876;8.346;2022-12-31T15:23:48;4.63;;;3.63;;
9698;SDS011;10089;47.876;8.346;2022-12-31T15:26:22;5.50;;;3.78;;
9698;SDS011;10089;47.876;8.346;2022-12-31T15:28:56;5.80;;;2.95;;
9698;SDS011;10089;47.876;8.346;2022-12-31T15:31:28;3.65;;;2.53;;
9698;SDS011;10089;47.876;8.346;2022-12-31T15:33:57;3.03;;;2.63;;
9698;SDS011;10089;47.876;8.346;2022-12-31T15:36:25;4.38;;;3.55;;
9698;SDS011;10089;47.876;8.346;2022-12-31T15:42:03;5.18;;;3.70;;
9698;SDS011;10089;47.876;8.346;2022-12-31T15:45:03;4.40;;;2.92;;
9698;SDS011;10089;47.876;8.346;2022-12-31T15:47:39;2.97;;;2.47;;
9698;SDS011;10089;47.876;8.346;2022-12-31T15:50:16;9.68;;;8.68;;
9698;SDS011;10089;47.876;8.346;2022-12-31T15:52:46;60.08;;;34.90;;
9698;SDS011;10089;47.876;8.346;2022-12-31T15:55:24;33.08;;;22.52;;
9698;SDS011;10089;47.876;8.346;2022-12-31T15:57:50;19.55;;;13.65;;
9698;SDS011;10089;47.876;8.346;2022-12-31T16:00:21;7.45;;;5.82;;
9698;SDS011;10089;47.876;8.346;2022-12-31T16:02:49;5.53;;;3.33;;
9698;SDS011;10089;47.876;8.346;2022-12-31T16:05:21;3.33;;;2.90;;
9698;SDS011;10089;47.876;8.346;2022-12-31T16:07:53;3.63;;;3.33;;
9698;SDS011;10089;47.876;8.346;2022-12-31T16:10:22;5.03;;;3.75;;
9698;SDS011;10089;47.876;8.346;2022-12-31T16:12:51;4.95;;;3.90;;
9698;SDS011;10089;47.876;8.346;2022-12-31T16:15:19;3.72;;;3.10;;
9698;SDS011;10089;47.876;8.346;2022-12-31T16:17:57;18.05;;;12.27;;
9698;SDS011;10089;47.876;8.346;2022-12-31T16:20:27;8.02;;;6.13;;
9698;SDS011;10089;47.876;8.346;2022-12-31T16:22:55;4.63;;;3.80;;
9698;SDS011;10089;47.876;8.346;2022-12-31T16:25:22;10.32;;;6.40;;
9698;SDS011;10089;47.876;8.346;2022-12-31T16:27:49;5.35;;;4.50;;
9698;SDS011;10089;47.876;8.346;2022-12-31T16:30:20;13.98;;;12.35;;
9698;SDS011;10089;47.876;8.346;2022-12-31T16:32:49;7.30;;;5.75;;
9698;SDS011;10089;47.876;8.346;2022-12-31T16:35:27;4.65;;;3.42;;
9698;SDS011;10089;47.876;8.346;2022-12-31T16:40:35;3.92;;;3.20;;
9698;SDS011;10089;47.876;8.346;2022-12-31T16:43:02;4.90;;;3.60;;
9698;SDS011;10089;47.876;8.346;2022-12-31T16:45:33;5.68;;;3.30;;
9698;SDS011;10089;47.876;8.346;2022-12-31T16:48:14;3.80;;;3.38;;
9698;SDS011;10089;47.876;8.346;2022-12-31T16:50:42;5.47;;;3.25;;
9698;SDS011;10089;47.876;8.346;2022-12-31T16:53:17;4.05;;;3.10;;
9698;SDS011;10089;47.876;8.346;2022-12-31T16:59:04;5.70;;;3.53;;
9698;SDS011;10089;47.876;8.346;2022-12-31T17:01:36;6.35;;;4.28;;
9698;SDS011;10089;47.876;8.346;2022-12-31T17:04:04;7.80;;;3.40;;
9698;SDS011;10089;47.876;8.346;2022-12-31T17:06:38;5.18;;;3.63;;
9698;SDS011;10089;47.876;8.346;2022-12-31T17:09:18;5.50;;;3.97;;
9698;SDS011;10089;47.876;8.346;2022-12-31T17:12:12;4.80;;;4.00;;
9698;SDS011;10089;47.876;8.346;2022-12-31T17:14:48;4.45;;;3.90;;
9698;SDS011;10089;47.876;8.346;2022-12-31T17:17:24;7.55;;;4.13;;
9698;SDS011;10089;47.876;8.346;2022-12-31T17:19:55;14.75;;;12.07;;
9698;SDS011;10089;47.876;8.346;2022-12-31T17:22:27;7.57;;;5.35;;
9698;SDS011;10089;47.876;8.346;2022-12-31T17:25:01;29.85;;;19.73;;
9698;SDS011;10089;47.876;8.346;2022-12-31T17:27:52;10.98;;;8.38;;
9698;SDS011;10089;47.876;8.346;2022-12-31T17:35:37;12.10;;;9.35;;
9698;SDS011;10089;47.876;8.346;2022-12-31T17:40:48;22.92;;;15.82;;
9698;SDS011;10089;47.876;8.346;2022-12-31T17:43:37;7.78;;;6.30;;
9698;SDS011;10089;47.876;8.346;2022-12-31T17:46:13;8.50;;;7.65;;
9698;SDS011;10089;47.876;8.346;2022-12-31T17:48:40;11.95;;;10.07;;
9698;SDS011;10089;47.876;8.346;2022-12-31T17:51:09;8.70;;;7.18;;
9698;SDS011;10089;47.876;8.346;2022-12-31T17:53:35;7.30;;;5.45;;
9698;SDS011;10089;47.876;8.346;2022-12-31T17:56:04;6.05;;;5.00;;
9698;SDS011;10089;47.876;8.346;2022-12-31T17:58:35;9.73;;;4.70;;
9698;SDS011;10089;47.876;8.346;2022-12-31T18:01:15;5.60;;;4.50;;
9698;SDS011;10089;47.876;8.346;2022-12-31T18:03:43;4.60;;;3.97;;
9698;SDS011;10089;47.876;8.346;2022-12-31T18:06:10;5.53;;;4.55;;
9698;SDS011;10089;47.876;8.346;2022-12-31T18:08:36;5.10;;;4.47;;
9698;SDS011;10089;47.876;8.346;2022-12-31T18:11:02;4.47;;;4.03;;
9698;SDS011;10089;47.876;8.346;2022-12-31T18:13:28;5.63;;;3.78;;
9698;SDS011;10089;47.876;8.346;2022-12-31T18:15:54;6.13;;;4.45;;
9698;SDS011;10089;47.876;8.346;2022-12-31T18:18:21;4.72;;;3.83;;
9698;SDS011;10089;47.876;8.346;2022-12-31T18:20:49;5.07;;;4.40;;
9698;SDS011;10089;47.876;8.346;2022-12-31T18:23:19;10.85;;;6.43;;
9698;SDS011;10089;47.876;8.346;2022-12-31T18:25:47;9.93;;;5.07;;
9698;SDS011;10089;47.876;8.346;2022-12-31T18:28:14;7.30;;;4.45;;
9698;SDS011;10089;47.876;8.346;2022-12-31T18:30:40;8.40;;;5.10;;
9698;SDS011;10089;47.876;8.346;2022-12-31T18:33:09;8.45;;;5.38;;
9698;SDS011;10089;47.876;8.346;2022-12-31T18:35:36;9.63;;;5.55;;
9698;SDS011;10089;47.876;8.346;2022-12-31T18:38:05;10.43;;;8.90;;
9698;SDS011;10089;47.876;8.346;2022-12-31T18:40:35;13.02;;;7.07;;
9698;SDS011;10089;47.876;8.346;2022-12-31T18:43:04;11.57;;;8.70;;
9698;SDS011;10089;47.876;8.346;2022-12-31T18:45:32;11.55;;;8.48;;
9698;SDS011;10089;47.876;8.346;2022-12-31T18:47:58;11.90;;;8.70;;
9698;SDS011;10089;47.876;8.346;2022-12-31T18:50:36;14.60;;;10.80;;
9698;SDS011;10089;47.876;8.346;2022-12-31T18:53:02;9.98;;;8.23;;
9698;SDS011;10089;47.876;8.346;2022-12-31T18:55:32;9.25;;;7.15;;
9698;SDS011;10089;47.876;8.346;2022-12-31T18:58:00;12.68;;;8.23;;
9698;SDS011;10089;47.876;8.346;2022-12-31T19:00:26;6.90;;;5.13;;
9698;SDS011;10089;47.876;8.346;2022-12-31T19:02:52;7.05;;;4.22;;
9698;SDS011;10089;47.876;8.346;2022-12-31T19:05:19;6.05;;;4.78;;
9698;SDS011;10089;47.876;8.346;2022-12-31T19:07:50;4.90;;;3.58;;
9698;SDS011;10089;47.876;8.346;2022-12-31T19:10:16;7.43;;;3.53;;
9698;SDS011;10089;47.876;8.346;2022-12-31T19:12:42;7.93;;;5.50;;
9698;SDS011;10089;47.876;8.346;2022-12-31T19:17:58;4.43;;;3.83;;
9698;SDS011;10089;47.876;8.346;2022-12-31T19:20:25;12.88;;;9.57;;
9698;SDS011;10089;47.876;8.346;2022-12-31T19:22:53;30.83;;;21.95;;
9698;SDS011;10089;47.876;8.346;2022-12-31T19:25:23;32.83;;;20.48;;
9698;SDS011;10089;47.876;8.346;2022-12-31T19:27:51;27.50;;;16.60;;
9698;SDS011;10089;47.876;8.346;2022-12-31T19:30:19;22.92;;;12.75;;
9698;SDS011;10089;47.876;8.346;2022-12-31T19:32:54;38.53;;;23.90;;
9698;SDS011;10089;47.876;8.346;2022-12-31T19:35:20;49.03;;;29.80;;
9698;SDS011;10089;47.876;8.346;2022-12-31T19:37:47;54.40;;;33.72;;
9698;SDS011;10089;47.876;8.346;2022-12-31T19:40:28;62.80;;;35.70;;
9698;SDS011;10089;47.876;8.346;2022-12-31T19:42:54;35.53;;;21.30;;
9698;SDS011;10089;47.876;8.346;2022-12-31T19:45:23;20.35;;;12.60;;
9698;SDS011;10089;47.876;8.346;2022-12-31T19:47:50;23.58;;;14.88;;
9698;SDS011;10089;47.876;8.346;2022-12-31T19:50:21;25.33;;;16.13;;
9698;SDS011;10089;47.876;8.346;2022-12-31T19:52:50;21.75;;;13.73;;
9698;SDS011;10089;47.876;8.346;2022-12-31T19:55:19;13.02;;;8.75;;
9698;SDS011;10089;47.876;8.346;2022-12-31T19:57:46;14.40;;;9.55;;
9698;SDS011;10089;47.876;8.346;2022-12-31T20:00:13;13.43;;;9.25;;
9698;SDS011;10089;47.876;8.346;2022-12-31T20:02:40;10.88;;;7.18;;
9698;SDS011;10089;47.876;8.346;2022-12-31T20:05:08;12.45;;;8.32;;
9698;SDS011;10089;47.876;8.346;2022-12-31T20:07:35;11.75;;;7.70;;
9698;SDS011;10089;47.876;8.346;2022-12-31T20:10:01;10.55;;;8.02;;
9698;SDS011;10089;47.876;8.346;2022-12-31T20:12:27;12.90;;;7.80;;